sensor_id;sensor_type;location;lat;lon;timestamp;P1;durP1;ratioP1;P2;durP2;ratioP2
63782;SDS011;49925;52.522;5.732;2023-03-21T07:14:19;51.60;;;22.50;;
63782;SDS011;49925;52.522;5.732;2023-03-21T09:51:36;51.87;;;15.10;;
63782;SDS011;49925;52.522;5.732;2023-03-21T09:54:10;38.93;;;14.73;;
63782;SDS011;49925;52.522;5.732;2023-03-21T09:56:44;42.13;;;14.40;;
63782;SDS011;49925;52.522;5.732;2023-03-21T09:59:20;42.40;;;15.57;;
63782;SDS011;49925;52.522;5.732;2023-03-21T10:01:53;39.80;;;14.73;;
63782;SDS011;49925;52.522;5.732;2023-03-21T10:04:21;43.92;;;14.95;;
63782;SDS011;49925;52.522;5.732;2023-03-21T10:06:52;43.58;;;13.18;;
63782;SDS011;49925;52.522;5.732;2023-03-21T10:09:23;37.58;;;13.35;;
63782;SDS011;49925;52.522;5.732;2023-03-21T10:14:48;25.13;;;10.95;;
63782;SDS011;49925;52.522;5.732;2023-03-21T10:17:22;35.75;;;11.75;;
63782;SDS011;49925;52.522;5.732;2023-03-21T10:22:37;27.65;;;10.70;;
63782;SDS011;49925;52.522;5.732;2023-03-21T10:25:04;27.15;;;10.25;;
63782;SDS011;49925;52.522;5.732;2023-03-21T10:27:33;27.85;;;10.15;;
63782;SDS011;49925;52.522;5.732;2023-03-21T10:30:02;27.85;;;10.70;;
63782;SDS011;49925;52.522;5.732;2023-03-21T10:32:33;25.58;;;10.30;;
63782;SDS011;49925;52.522;5.732;2023-03-21T10:35:01;29.13;;;10.32;;
63782;SDS011;49925;52.522;5.732;2023-03-21T10:37:30;28.55;;;11.27;;
63782;SDS011;49925;52.522;5.732;2023-03-21T10:39:57;25.35;;;9.70;;
63782;SDS011;49925;52.522;5.732;2023-03-21T10:42:26;29.65;;;10.00;;
63782;SDS011;49925;52.522;5.732;2023-03-21T10:44:58;30.45;;;9.57;;
63782;SDS011;49925;52.522;5.732;2023-03-21T10:47:26;21.48;;;9.48;;
63782;SDS011;49925;52.522;5.732;2023-03-21T10:50:00;25.35;;;9.23;;
63782;SDS011;49925;52.522;5.732;2023-03-21T10:52:52;20.95;;;8.70;;
63782;SDS011;49925;52.522;5.732;2023-03-21T10:55:27;33.22;;;9.95;;
63782;SDS011;49925;52.522;5.732;2023-03-21T10:58:01;19.85;;;9.57;;
63782;SDS011;49925;52.522;5.732;2023-03-21T11:00:34;24.95;;;9.88;;
63782;SDS011;49925;52.522;5.732;2023-03-21T11:03:13;25.75;;;8.93;;
63782;SDS011;49925;52.522;5.732;2023-03-21T11:06:04;33.17;;;11.50;;
63782;SDS011;49925;52.522;5.732;2023-03-21T11:08:48;24.53;;;9.93;;
63782;SDS011;49925;52.522;5.732;2023-03-21T11:11:20;26.05;;;9.93;;
63782;SDS011;49925;52.522;5.732;2023-03-21T11:13:56;27.00;;;10.30;;
63782;SDS011;49925;52.522;5.732;2023-03-21T11:16:37;32.35;;;10.50;;
63782;SDS011;49925;52.522;5.732;2023-03-21T11:19:17;33.78;;;11.30;;
63782;SDS011;49925;52.522;5.732;2023-03-21T11:21:56;31.65;;;11.82;;
63782;SDS011;49925;52.522;5.732;2023-03-21T11:24:26;22.55;;;9.25;;
63782;SDS011;49925;52.522;5.732;2023-03-21T11:26:54;30.45;;;11.27;;
63782;SDS011;49925;52.522;5.732;2023-03-21T11:29:25;35.65;;;9.98;;
63782;SDS011;49925;52.522;5.732;2023-03-21T11:35:00;30.48;;;10.30;;
63782;SDS011;49925;52.522;5.732;2023-03-21T11:37:50;31.17;;;11.35;;
63782;SDS011;49925;52.522;5.732;2023-03-21T11:40:26;30.00;;;11.35;;
63782;SDS011;49925;52.522;5.732;2023-03-21T11:42:59;31.13;;;10.95;;
63782;SDS011;49925;52.522;5.732;2023-03-21T11:46:00;38.08;;;11.13;;
63782;SDS011;49925;52.522;5.732;2023-03-21T11:48:39;25.10;;;11.15;;
63782;SDS011;49925;52.522;5.732;2023-03-21T11:54:16;29.15;;;10.65;;
63782;SDS011;49925;52.522;5.732;2023-03-21T11:56:51;26.88;;;11.30;;
63782;SDS011;49925;52.522;5.732;2023-03-21T11:59:25;30.23;;;11.38;;
63782;SDS011;49925;52.522;5.732;2023-03-21T12:33:46;35.60;;;10.40;;
63782;SDS011;49925;52.522;5.732;2023-03-21T12:39:40;35.35;;;12.20;;
63782;SDS011;49925;52.522;5.732;2023-03-21T12:42:17;25.80;;;11.15;;
63782;SDS011;49925;52.522;5.732;2023-03-21T12:45:12;32.15;;;11.30;;
63782;SDS011;49925;52.522;5.732;2023-03-21T12:47:52;29.65;;;11.73;;
63782;SDS011;49925;52.522;5.732;2023-03-21T12:50:25;35.75;;;11.13;;
63782;SDS011;49925;52.522;5.732;2023-03-21T12:52:59;27.90;;;10.63;;
63782;SDS011;49925;52.522;5.732;2023-03-21T12:55:47;28.20;;;10.95;;
63782;SDS011;49925;52.522;5.732;2023-03-21T12:58:17;36.75;;;11.88;;
63782;SDS011;49925;52.522;5.732;2023-03-21T13:03:20;36.73;;;12.37;;
63782;SDS011;49925;52.522;5.732;2023-03-21T13:06:06;31.75;;;12.57;;
63782;SDS011;49925;52.522;5.732;2023-03-21T13:11:05;27.05;;;11.75;;
63782;SDS011;49925;52.522;5.732;2023-03-21T13:16:36;27.70;;;11.40;;
63782;SDS011;49925;52.522;5.732;2023-03-21T13:22:27;41.30;;;11.80;;
63782;SDS011;49925;52.522;5.732;2023-03-21T13:25:14;29.95;;;11.90;;
63782;SDS011;49925;52.522;5.732;2023-03-21T13:27:52;30.80;;;11.20;;
63782;SDS011;49925;52.522;5.732;2023-03-21T13:30:22;25.70;;;11.70;;
63782;SDS011;49925;52.522;5.732;2023-03-21T13:33:02;30.70;;;12.38;;
63782;SDS011;49925;52.522;5.732;2023-03-21T13:35:42;27.30;;;11.15;;
63782;SDS011;49925;52.522;5.732;2023-03-21T13:38:15;25.85;;;10.57;;
63782;SDS011;49925;52.522;5.732;2023-03-21T13:59:16;29.48;;;11.77;;
63782;SDS011;49925;52.522;5.732;2023-03-21T14:05:16;30.38;;;10.80;;
63782;SDS011;49925;52.522;5.732;2023-03-21T14:07:47;32.45;;;11.52;;
63782;SDS011;49925;52.522;5.732;2023-03-21T14:13:12;27.00;;;10.30;;
63782;SDS011;49925;52.522;5.732;2023-03-21T14:15:44;24.13;;;9.77;;
63782;SDS011;49925;52.522;5.732;2023-03-21T14:18:38;24.92;;;9.98;;
63782;SDS011;49925;52.522;5.732;2023-03-21T14:21:21;22.33;;;10.68;;
63782;SDS011;49925;52.522;5.732;2023-03-21T14:24:02;23.40;;;10.82;;
63782;SDS011;49925;52.522;5.732;2023-03-21T14:26:32;25.60;;;10.57;;
63782;SDS011;49925;52.522;5.732;2023-03-21T14:29:05;19.90;;;9.68;;
63782;SDS011;49925;52.522;5.732;2023-03-21T14:31:51;24.88;;;10.05;;
63782;SDS011;49925;52.522;5.732;2023-03-21T14:34:19;22.45;;;9.82;;
63782;SDS011;49925;52.522;5.732;2023-03-21T14:36:48;24.48;;;10.85;;
63782;SDS011;49925;52.522;5.732;2023-03-21T14:39:30;23.77;;;10.50;;
63782;SDS011;49925;52.522;5.732;2023-03-21T14:42:06;25.30;;;10.63;;
63782;SDS011;49925;52.522;5.732;2023-03-21T14:44:40;29.77;;;11.02;;
63782;SDS011;49925;52.522;5.732;2023-03-21T14:47:27;24.65;;;9.75;;
63782;SDS011;49925;52.522;5.732;2023-03-21T14:49:56;20.98;;;9.95;;
63782;SDS011;49925;52.522;5.732;2023-03-21T14:52:25;24.95;;;10.20;;
63782;SDS011;49925;52.522;5.732;2023-03-21T14:54:58;32.22;;;12.57;;
63782;SDS011;49925;52.522;5.732;2023-03-21T14:57:28;32.03;;;11.38;;
63782;SDS011;49925;52.522;5.732;2023-03-21T15:00:00;21.80;;;11.10;;
63782;SDS011;49925;52.522;5.732;2023-03-21T15:02:37;33.45;;;10.85;;
63782;SDS011;49925;52.522;5.732;2023-03-21T15:05:09;23.77;;;10.38;;
63782;SDS011;49925;52.522;5.732;2023-03-21T15:07:45;24.25;;;10.80;;
63782;SDS011;49925;52.522;5.732;2023-03-21T15:10:26;27.45;;;11.02;;
63782;SDS011;49925;52.522;5.732;2023-03-21T15:12:57;26.40;;;10.60;;
63782;SDS011;49925;52.522;5.732;2023-03-21T15:17:55;26.70;;;10.87;;
63782;SDS011;49925;52.522;5.732;2023-03-21T16:26:16;23.95;;;12.63;;
63782;SDS011;49925;52.522;5.732;2023-03-21T16:28:48;34.47;;;13.65;;
63782;SDS011;49925;52.522;5.732;2023-03-21T17:11:17;30.55;;;10.85;;
63782;SDS011;49925;52.522;5.732;2023-03-21T17:13:47;20.92;;;10.45;;
63782;SDS011;49925;52.522;5.732;2023-03-21T17:16:17;19.73;;;10.55;;
63782;SDS011;49925;52.522;5.732;2023-03-21T17:18:51;20.33;;;9.82;;
63782;SDS011;49925;52.522;5.732;2023-03-21T17:21:19;26.50;;;10.98;;
63782;SDS011;49925;52.522;5.732;2023-03-21T17:23:49;21.95;;;11.00;;
63782;SDS011;49925;52.522;5.732;2023-03-21T18:43:51;20.27;;;11.65;;
63782;SDS011;49925;52.522;5.732;2023-03-21T18:46:34;31.52;;;11.90;;
63782;SDS011;49925;52.522;5.732;2023-03-21T18:49:02;26.05;;;12.35;;
63782;SDS011;49925;52.522;5.732;2023-03-21T18:51:49;27.67;;;11.77;;
63782;SDS011;49925;52.522;5.732;2023-03-21T18:54:17;23.88;;;12.40;;
63782;SDS011;49925;52.522;5.732;2023-03-21T18:56:45;27.45;;;11.65;;
63782;SDS011;49925;52.522;5.732;2023-03-21T18:59:36;22.05;;;11.57;;
63782;SDS011;49925;52.522;5.732;2023-03-21T19:02:04;21.88;;;11.52;;
63782;SDS011;49925;52.522;5.732;2023-03-21T19:04:32;18.88;;;10.25;;
63782;SDS011;49925;52.522;5.732;2023-03-21T19:07:02;22.77;;;11.18;;
63782;SDS011;49925;52.522;5.732;2023-03-21T19:09:30;21.73;;;10.65;;
63782;SDS011;49925;52.522;5.732;2023-03-21T19:12:19;26.67;;;11.80;;
63782;SDS011;49925;52.522;5.732;2023-03-21T19:14:46;24.02;;;11.30;;
63782;SDS011;49925;52.522;5.732;2023-03-21T19:17:13;27.13;;;12.27;;
63782;SDS011;49925;52.522;5.732;2023-03-21T19:20:01;21.20;;;10.80;;
63782;SDS011;49925;52.522;5.732;2023-03-21T19:22:30;21.23;;;11.27;;
63782;SDS011;49925;52.522;5.732;2023-03-21T19:24:57;22.98;;;11.45;;
63782;SDS011;49925;52.522;5.732;2023-03-21T19:27:24;25.38;;;12.13;;
63782;SDS011;49925;52.522;5.732;2023-03-21T19:29:52;21.85;;;12.13;;
63782;SDS011;49925;52.522;5.732;2023-03-21T19:32:38;22.35;;;11.98;;
63782;SDS011;49925;52.522;5.732;2023-03-21T19:35:05;26.02;;;12.15;;
63782;SDS011;49925;52.522;5.732;2023-03-21T19:37:33;21.42;;;12.45;;
63782;SDS011;49925;52.522;5.732;2023-03-21T19:40:02;25.20;;;13.10;;
63782;SDS011;49925;52.522;5.732;2023-03-21T19:42:32;26.10;;;13.07;;
63782;SDS011;49925;52.522;5.732;2023-03-21T19:45:02;29.45;;;13.60;;
63782;SDS011;49925;52.522;5.732;2023-03-21T19:47:31;29.38;;;12.77;;
63782;SDS011;49925;52.522;5.732;2023-03-21T19:49:58;32.28;;;13.45;;
63782;SDS011;49925;52.522;5.732;2023-03-21T19:52:45;25.20;;;13.32;;
63782;SDS011;49925;52.522;5.732;2023-03-21T19:55:12;23.80;;;12.65;;
63782;SDS011;49925;52.522;5.732;2023-03-21T19:57:40;22.38;;;12.57;;
63782;SDS011;49925;52.522;5.732;2023-03-21T20:00:07;25.48;;;12.95;;
63782;SDS011;49925;52.522;5.732;2023-03-21T20:02:36;30.65;;;12.80;;
63782;SDS011;49925;52.522;5.732;2023-03-21T20:05:04;30.48;;;13.50;;
63782;SDS011;49925;52.522;5.732;2023-03-21T20:07:32;32.55;;;13.55;;
63782;SDS011;49925;52.522;5.732;2023-03-21T20:09:59;25.10;;;13.25;;
63782;SDS011;49925;52.522;5.732;2023-03-21T20:12:26;28.80;;;13.57;;
63782;SDS011;49925;52.522;5.732;2023-03-21T20:14:54;22.65;;;12.35;;
63782;SDS011;49925;52.522;5.732;2023-03-21T20:17:41;29.35;;;12.77;;
63782;SDS011;49925;52.522;5.732;2023-03-21T20:20:09;27.83;;;13.70;;
63782;SDS011;49925;52.522;5.732;2023-03-21T20:22:40;23.40;;;12.98;;
63782;SDS011;49925;52.522;5.732;2023-03-21T20:25:28;23.20;;;12.57;;
63782;SDS011;49925;52.522;5.732;2023-03-21T20:27:56;28.10;;;12.75;;
